Time;durP1;ratioP1;P1;durP2;ratioP2;P2;SDS_P1;SDS_P2;PMS_P1;PMS_P2;Temp;Humidity;BMP_temperature;BMP_pressure;BME280_temperature;BME280_humidity;BME280_pressure;Samples;Min_cycle;Max_cycle;Signal;HPM_P1;HPM_P2
2021/12/29 00:08:13;;;;;;;12.07;2.30;;;8.60;99.90;;;;;;20644889;28;20034;-81
2021/12/29 00:18:14;;;;;;;16.23;2.53;;;8.50;99.90;;;;;;20692751;28;20057;-80
2021/12/29 00:28:15;;;;;;;19.97;3.03;;;8.40;99.90;;;;;;20665723;28;20132;-80
2021/12/29 00:38:17;;;;;;;6.50;1.27;;;8.50;99.90;;;;;;20703463;28;20577;-79
2021/12/29 00:48:51;;;;;;;18.10;2.17;;;8.20;99.90;;;;;;20721343;28;20046;-80
2021/12/29 00:58:52;;;;;;;18.50;2.63;;;8.10;99.90;;;;;;20691115;28;20120;-82
2021/12/29 01:08:54;;;;;;;19.13;2.95;;;8.00;99.90;;;;;;20651608;28;20045;-79
2021/12/29 01:18:55;;;;;;;20.60;2.20;;;8.10;99.90;;;;;;20655225;28;20089;-80
2021/12/29 01:28:56;;;;;;;11.60;2.15;;;8.20;99.90;;;;;;20655888;28;20034;-81
2021/12/29 01:38:56;;;;;;;15.37;2.53;;;8.30;99.90;;;;;;20657126;28;20125;-78
2021/12/29 01:48:57;;;;;;;10.80;2.90;;;8.30;99.90;;;;;;20647256;28;20061;-80
2021/12/29 01:58:58;;;;;;;12.67;2.03;;;8.10;99.90;;;;;;20637109;28;20530;-79
2021/12/29 02:08:59;;;;;;;18.37;2.37;;;8.10;99.90;;;;;;20655206;28;20081;-79
2021/12/29 02:19:06;;;;;;;13.40;2.17;;;7.90;99.90;;;;;;20654009;28;20129;-79
2021/12/29 02:29:09;;;;;;;14.05;1.70;;;7.80;99.90;;;;;;20682808;28;20030;-80
2021/12/29 02:39:17;;;;;;;20.52;2.95;;;7.70;99.90;;;;;;20671870;28;20034;-79
2021/12/29 02:49:19;;;;;;;39.05;3.40;;;7.50;99.90;;;;;;20703584;23;20054;-76
2021/12/29 02:59:20;;;;;;;14.80;3.05;;;7.40;99.90;;;;;;20658404;28;20081;-77
2021/12/29 03:09:21;;;;;;;13.77;2.58;;;7.30;99.90;;;;;;20668874;28;20026;-77
2021/12/29 03:19:22;;;;;;;20.38;2.40;;;7.30;99.90;;;;;;20650961;28;20038;-77
2021/12/29 03:29:23;;;;;;;10.37;2.03;;;7.30;99.90;;;;;;20667991;28;20041;-76
2021/12/29 03:39:26;;;;;;;13.73;1.97;;;7.40;99.90;;;;;;20668015;28;20069;-77
2021/12/29 03:49:27;;;;;;;10.85;2.15;;;7.60;99.90;;;;;;20668099;28;20030;-76
2021/12/29 03:59:28;;;;;;;26.13;2.57;;;7.50;99.90;;;;;;20666833;28;20045;-77
2021/12/29 04:09:29;;;;;;;11.40;2.05;;;7.40;99.90;;;;;;20647420;28;20493;-77
2021/12/29 04:19:40;;;;;;;14.97;1.97;;;7.40;99.90;;;;;;20663908;28;20034;-76
2021/12/29 04:29:41;;;;;;;12.93;2.17;;;7.40;99.90;;;;;;20663129;28;20397;-76
2021/12/29 04:39:42;;;;;;;18.80;2.27;;;7.50;99.90;;;;;;20645442;28;20026;-76
2021/12/29 04:49:43;;;;;;;12.53;2.13;;;7.70;99.90;;;;;;20661859;28;20030;-76
2021/12/29 04:59:44;;;;;;;;;;;7.80;99.90;;;;;;20662013;28;20288;-76
2021/12/29 05:09:45;;;;;;;13.93;1.88;;;7.80;99.90;;;;;;20661058;28;20295;-76
2021/12/29 05:19:46;;;;;;;16.50;1.83;;;7.80;99.90;;;;;;20644107;28;20102;-76
2021/12/29 05:29:46;;;;;;;14.77;2.30;;;7.80;99.90;;;;;;20675437;28;20057;-76
2021/12/29 05:39:47;;;;;;;15.40;2.03;;;7.80;99.90;;;;;;20674854;28;20114;-76
2021/12/29 05:49:48;;;;;;;18.37;1.97;;;7.80;99.90;;;;;;20674226;28;20484;-76
2021/12/29 05:59:49;;;;;;;21.20;2.13;;;7.90;99.90;;;;;;20655880;28;20034;-76
2021/12/29 06:09:50;;;;;;;22.37;2.50;;;7.90;99.90;;;;;;20655267;28;20485;-76
2021/12/29 06:19:51;;;;;;;8.20;1.80;;;7.80;99.90;;;;;;20654455;28;20038;-76
2021/12/29 06:29:52;;;;;;;17.90;2.13;;;7.70;99.90;;;;;;20653654;28;20042;-76
2021/12/29 06:39:52;;;;;;;21.60;2.27;;;7.70;99.90;;;;;;20670082;28;20033;-76
2021/12/29 06:49:53;;;;;;;10.60;2.23;;;7.60;99.90;;;;;;20669554;28;20369;-76
2021/12/29 06:59:54;;;;;;;12.17;1.40;;;7.60;99.90;;;;;;20651158;28;20049;-76
2021/12/29 07:09:55;;;;;;;19.80;2.37;;;7.50;99.90;;;;;;20668004;28;20060;-76
2021/12/29 07:19:56;;;;;;;18.63;2.43;;;7.50;99.90;;;;;;20667621;28;20026;-76
2021/12/29 07:29:56;;;;;;;20.20;2.60;;;7.50;99.90;;;;;;20666659;28;20497;-76
2021/12/29 07:39:58;;;;;;;12.97;2.00;;;7.50;99.90;;;;;;20648356;28;20030;-76
2021/12/29 07:49:59;;;;;;;18.30;2.53;;;7.50;99.90;;;;;;20646594;28;20034;-76
2021/12/29 07:59:59;;;;;;;14.03;2.20;;;7.60;99.90;;;;;;20664108;28;20284;-77
2021/12/29 08:10:00;;;;;;;20.87;3.63;;;7.60;99.90;;;;;;20663568;28;20030;-76
2021/12/29 08:20:04;;;;;;;23.55;4.78;;;7.70;99.90;;;;;;20662974;28;20033;-76
2021/12/29 08:30:07;;;;;;;14.65;4.13;;;7.80;99.90;;;;;;20645141;28;20081;-76
2021/12/29 08:40:09;;;;;;;26.35;5.20;;;7.90;99.90;;;;;;20661981;28;20038;-76
2021/12/29 08:50:13;;;;;;;21.60;2.72;;;7.90;99.90;;;;;;20697072;23;20042;-79
2021/12/29 09:00:17;;;;;;;11.95;1.92;;;8.20;99.90;;;;;;20730683;28;20106;-79
2021/12/29 09:10:19;;;;;;;9.98;1.55;;;8.10;99.90;;;;;;20712795;28;20042;-79
2021/12/29 09:20:26;;;;;;;10.10;1.20;;;7.90;99.90;;;;;;20721005;28;22063;-78
2021/12/29 09:30:30;;;;;;;5.90;1.02;;;7.80;99.90;;;;;;20718465;28;20026;-79
2021/12/29 09:40:32;;;;;;;1.08;0.68;;;7.70;99.90;;;;;;20693251;28;20100;-79
2021/12/29 09:50:34;;;;;;;3.22;0.73;;;7.60;99.90;;;;;;20692521;28;20117;-80
2021/12/29 10:00:44;;;;;;;3.75;1.88;;;7.50;99.90;;;;;;20667296;28;20030;-79
2021/12/29 10:10:51;;;;;;;0.88;0.57;;;7.50;99.90;;;;;;20671924;28;20114;-79
2021/12/29 10:21:04;;;;;;;5.22;0.73;;;7.30;99.90;;;;;;20706230;28;20030;-80
2021/12/29 10:31:13;;;;;;;4.05;1.00;;;7.40;99.90;;;;;;20682029;28;20045;-79
2021/12/29 10:41:14;;;;;;;4.93;1.60;;;7.50;99.90;;;;;;20692721;28;20065;-79
2021/12/29 10:51:15;;;;;;;1.70;1.07;;;7.60;99.90;;;;;;20693385;28;21621;-79
2021/12/29 11:01:16;;;;;;;13.88;4.78;;;7.60;99.90;;;;;;20706100;28;20022;-76
2021/12/29 11:11:20;;;;;;;5.93;2.55;;;7.60;99.90;;;;;;20699348;28;20056;-80
2021/12/29 11:21:33;;;;;;;32.22;14.55;;;7.70;99.90;;;;;;20650517;28;20089;-81
2021/12/29 11:31:41;;;;;;;20.50;9.48;;;7.80;99.90;;;;;;20664393;28;20038;-80
2021/12/29 11:41:42;;;;;;;3.03;1.70;;;7.90;99.90;;;;;;20664766;28;20030;-80
2021/12/29 11:52:05;;;;;;;4.57;0.97;;;7.80;99.90;;;;;;20641865;28;20042;-82
2021/12/29 12:02:06;;;;;;;1.92;0.50;;;7.70;99.90;;;;;;20656213;28;21085;-80
2021/12/29 12:12:07;;;;;;;;;;;7.70;99.90;;;;;;20669984;28;20512;-82
2021/12/29 12:22:16;;;;;;;1.67;0.90;;;7.50;99.90;;;;;;20676350;28;19910;-80
2021/12/29 12:32:21;;;;;;;0.70;0.50;;;7.60;99.90;;;;;;20619045;28;20074;-80
2021/12/29 12:42:22;;;;;;;1.23;0.82;;;7.70;99.90;;;;;;20625938;28;20034;-79
2021/12/29 12:52:24;;;;;;;7.70;4.25;;;7.60;99.90;;;;;;20578410;28;20191;-81
2021/12/29 13:02:25;;;;;;;12.07;5.65;;;7.70;99.90;;;;;;20562197;28;20027;-81
2021/12/29 13:12:34;;;;;;;1.80;1.10;;;7.60;99.90;;;;;;20596284;28;20455;-81
2021/12/29 13:22:36;;;;;;;5.55;2.42;;;7.50;99.90;;;;;;20724526;28;20081;-80
2021/12/29 13:32:47;;;;;;;;;;;7.40;99.90;;;;;;20667217;28;20567;-80
2021/12/29 13:42:48;;;;;;;1.40;1.13;;;7.30;99.90;;;;;;20670508;28;20339;-79
2021/12/29 13:53:06;;;;;;;2.50;1.50;;;7.30;99.90;;;;;;20680740;28;20033;-80
2021/12/29 14:03:07;;;;;;;3.17;1.63;;;7.40;99.90;;;;;;20636940;28;20039;-81
2021/12/29 14:13:16;;;;;;;2.33;1.63;;;7.30;99.90;;;;;;20669484;28;20014;-80
2021/12/29 14:23:17;;;;;;;2.90;1.20;;;7.30;99.90;;;;;;20646185;28;20174;-81
2021/12/29 14:33:18;;;;;;;3.03;1.97;;;7.30;99.90;;;;;;20655913;28;20038;-79
2021/12/29 14:43:25;;;;;;;3.03;2.03;;;7.20;99.90;;;;;;20627857;28;20062;-80
2021/12/29 14:53:29;;;;;;;3.47;2.50;;;7.20;99.90;;;;;;20686731;23;20403;-76
2021/12/29 15:03:30;;;;;;;2.67;1.50;;;7.20;99.90;;;;;;20765330;28;20034;-76
2021/12/29 15:13:38;;;;;;;3.23;2.50;;;7.20;99.90;;;;;;20731576;28;20103;-75
2021/12/29 15:23:43;;;;;;;5.45;3.15;;;7.30;99.90;;;;;;20737227;28;20458;-76
2021/12/29 15:33:46;;;;;;;1.83;1.20;;;7.30;99.90;;;;;;20734133;28;20041;-77
2021/12/29 15:43:46;;;;;;;2.00;0.98;;;7.30;99.90;;;;;;20718524;28;20037;-76
2021/12/29 15:53:48;;;;;;;42.23;7.50;;;7.40;99.90;;;;;;20707494;28;20041;-77
2021/12/29 16:03:49;;;;;;;;;;;7.40;99.90;;;;;;20692630;28;20030;-78
2021/12/29 16:13:50;;;;;;;9.95;5.82;;;7.30;99.90;;;;;;20707813;28;19917;-76
2021/12/29 16:23:51;;;;;;;29.57;14.77;;;7.30;99.90;;;;;;20707620;28;20113;-76
2021/12/29 16:33:51;;;;;;;12.97;6.13;;;7.20;99.90;;;;;;20724930;28;20793;-77
2021/12/29 16:43:52;;;;;;;9.63;4.03;;;7.10;99.90;;;;;;20680243;28;20085;-76
2021/12/29 16:53:53;;;;;;;5.10;2.87;;;7.20;99.90;;;;;;20695451;28;20192;-76
2021/12/29 17:03:54;;;;;;;5.70;3.50;;;7.20;99.90;;;;;;20722577;28;20506;-77
2021/12/29 17:13:55;;;;;;;5.27;3.70;;;7.10;99.90;;;;;;20700876;28;20046;-78
2021/12/29 17:23:56;;;;;;;3.80;2.00;;;7.00;99.90;;;;;;20736218;28;20030;-76
2021/12/29 17:33:58;;;;;;;8.57;3.90;;;6.90;99.90;;;;;;20721723;28;20374;-77
2021/12/29 17:43:59;;;;;;;10.30;5.50;;;7.10;99.90;;;;;;20702874;28;20042;-77
2021/12/29 17:54:00;;;;;;;16.08;7.07;;;7.10;99.90;;;;;;20735809;28;20158;-77
2021/12/29 18:04:01;;;;;;;23.63;12.90;;;7.10;99.90;;;;;;20717659;28;20042;-77
2021/12/29 18:14:03;;;;;;;27.80;12.63;;;7.20;99.90;;;;;;20734072;28;20030;-77
2021/12/29 18:24:04;;;;;;;18.83;10.75;;;7.10;99.90;;;;;;20730248;28;20075;-77
2021/12/29 18:34:05;;;;;;;11.48;6.60;;;7.10;99.90;;;;;;20748500;28;20041;-76
2021/12/29 18:44:06;;;;;;;;;;;7.10;99.90;;;;;;20748954;28;20025;-77
2021/12/29 18:54:07;;;;;;;5.95;3.55;;;7.10;99.90;;;;;;20749472;28;19959;-77
2021/12/29 19:04:11;;;;;;;26.50;11.00;;;7.10;99.90;;;;;;20712457;28;20025;-77
2021/12/29 19:14:12;;;;;;;27.15;13.32;;;7.20;99.90;;;;;;20749476;28;20037;-77
2021/12/29 19:24:13;;;;;;;13.30;6.60;;;7.20;99.90;;;;;;20746064;28;20052;-77
2021/12/29 19:34:14;;;;;;;20.42;9.77;;;7.20;99.90;;;;;;20747385;28;20057;-77
2021/12/29 19:44:15;;;;;;;18.87;10.30;;;7.20;99.90;;;;;;20726969;28;20034;-77
2021/12/29 19:54:21;;;;;;;21.27;10.37;;;7.30;99.90;;;;;;20744183;28;20042;-77
2021/12/29 20:04:21;;;;;;;28.30;14.35;;;7.40;99.90;;;;;;20743526;28;20485;-77
2021/12/29 20:14:23;;;;;;;35.80;16.23;;;7.70;99.90;;;;;;20743091;28;20044;-77
2021/12/29 20:24:24;;;;;;;38.58;17.30;;;7.80;99.90;;;;;;20708064;28;20041;-77
2021/12/29 20:34:26;;;;;;;43.53;18.07;;;8.20;99.90;;;;;;20740276;28;20428;-77
2021/12/29 20:44:27;;;;;;;35.08;14.27;;;8.30;99.90;;;;;;20739906;28;20068;-77
2021/12/29 20:54:28;;;;;;;26.57;12.13;;;9.00;99.90;;;;;;20759672;23;20038;-76
2021/12/29 21:04:30;;;;;;;24.67;12.10;;;9.50;99.90;;;;;;20638295;28;20065;-75
2021/12/29 21:14:31;;;;;;;23.70;11.20;;;9.80;99.90;;;;;;20615602;28;20049;-76
2021/12/29 21:24:32;;;;;;;20.27;9.83;;;10.00;99.90;;;;;;20611291;28;20031;-76
2021/12/29 21:34:35;;;;;;;14.00;6.73;;;10.40;99.90;;;;;;20565197;28;21419;-76
2021/12/29 21:44:36;;;;;;;9.18;3.22;;;10.80;99.90;;;;;;20651472;28;20460;-76
2021/12/29 21:54:37;;;;;;;2.70;1.43;;;11.40;99.90;;;;;;20654269;28;20077;-77
2021/12/29 22:04:38;;;;;;;2.13;1.50;;;11.70;99.90;;;;;;20634177;28;20034;-77
2021/12/29 22:14:38;;;;;;;0.77;0.70;;;11.70;99.90;;;;;;20653250;28;20085;-76
2021/12/29 22:24:39;;;;;;;0.60;0.50;;;12.00;99.90;;;;;;20634791;28;20036;-77
2021/12/29 22:34:41;;;;;;;1.80;0.20;;;12.20;99.90;;;;;;20651473;28;20042;-76
2021/12/29 22:44:42;;;;;;;1.03;0.40;;;12.20;99.90;;;;;;20651315;28;20034;-76
2021/12/29 22:54:42;;;;;;;0.87;0.30;;;12.30;99.90;;;;;;20650252;28;20348;-74
2021/12/29 23:04:43;;;;;;;1.17;0.30;;;12.40;99.90;;;;;;20580055;28;20062;-76
2021/12/29 23:14:44;;;;;;;0.77;0.40;;;12.40;99.90;;;;;;20603877;28;20452;-78
2021/12/29 23:24:51;;;;;;;0.23;0.20;;;12.40;99.90;;;;;;20567292;28;20038;-77
2021/12/29 23:34:52;;;;;;;2.85;0.20;;;12.50;99.90;;;;;;20615203;28;20104;-76
2021/12/29 23:44:53;;;;;;;0.60;0.40;;;12.40;99.90;;;;;;20646202;28;20089;-77
2021/12/29 23:54:54;;;;;;;0.40;0.20;;;12.50;99.90;;;;;;20645541;28;20038;-77
